Terminal Aerodrome Forecast
Issued by NWS

Home | Current Version | Previous Version | Text Only | Print | Product List | Glossary On
Versions: 1 2 3 4 5 6 7 8 9 10 11 12 13 14 15 16 17 18 19 20 21 22 23 24 25 26 27
000
FTUS46 KSEW 031121
TAFCLM
TAF
KCLM 031121Z 0312/0412 00000KT P6SM SCT025
      TEMPO 0312/0314 BKN025
     FM031400 23004KT P6SM OVC025
     FM031700 33008KT P6SM SCT025 BKN040
     FM032000 33012KT P6SM SCT050 BKN150
     FM040100 29014G24KT P6SM FEW050 BKN150
     FM040500 28008KT P6SM SCT120=

USA.gov is the U.S. government's official web portal to all federal, state and local government web resources and services.